Time;durP1;ratioP1;P1;durP2;ratioP2;P2;SDS_P1;SDS_P2;PMS_P1;PMS_P2;Temp;Humidity;BMP_temperature;BMP_pressure;BME280_temperature;BME280_humidity;BME280_pressure;Samples;Min_cycle;Max_cycle;Signal;HPM_P1;HPM_P2
2022/02/13 00:00:06;;;;;;;;;;;;;;;;;;5007654;28;19917;-65
2022/02/13 00:02:32;;;;;;;;;;;;;;;;;;5016995;28;19913;-64
2022/02/13 00:04:58;;;;;;;;;;;;;;;;;;5014688;28;19918;-65
2022/02/13 00:07:24;;;;;;;;;;;;;;;;;;5014819;28;20736;-65
2022/02/13 00:09:50;;;;;;;;;;;;;;;;;;5019284;28;19939;-65
2022/02/13 00:12:16;;;;;;;;;;;;;;;;;;5033783;28;20262;-65
2022/02/13 00:14:43;;;;;;;;;;;;;;;;;;5030553;28;19944;-65
2022/02/13 00:17:10;;;;;;;;;;;;;;;;;;5037125;28;19924;-65
2022/02/13 00:19:36;;;;;;;;;;;;;;;;;;5029460;28;19917;-65
2022/02/13 00:22:02;;;;;;;;;;;;;;;;;;5021993;28;20044;-65
2022/02/13 00:24:28;;;;;;;;;;;;;;;;;;5021336;28;19939;-64
2022/02/13 00:26:54;;;;;;;;;;;;;;;;;;5014827;28;19927;-65
2022/02/13 00:29:20;;;;;;;;;;;;;;;;;;5021407;28;19929;-65
2022/02/13 00:31:46;;;;;;;;;;;;;;;;;;5015533;28;19930;-65
2022/02/13 00:34:12;;;;;;;;;;;;;;;;;;5016727;28;20702;-64
2022/02/13 00:36:38;;;;;;;;;;;;;;;;;;5005901;28;19927;-65
2022/02/13 00:39:06;;;;;;;;;;;;;;;;;;5014371;28;19921;-64
2022/02/13 00:41:32;;;;;;;;;;;;;;;;;;5019022;28;20280;-65
2022/02/13 00:43:58;;;;;;;;;;;;;;;;;;5009995;28;19917;-64
2022/02/13 00:46:24;;;;;;;;;;;;;;;;;;5014100;28;19920;-65
2022/02/13 00:48:50;;;;;;;;;;;;;;;;;;5016079;28;19927;-65
2022/02/13 00:51:16;;;;;;;;;;;;;;;;;;5017896;28;19963;-65
2022/02/13 00:53:42;;;;;;;;;;;;;;;;;;5017823;28;20697;-64
2022/02/13 00:56:08;;;;;;;;;;;;;;;;;;5016119;28;19964;-64
2022/02/13 00:58:35;;;;;;;;;;;;;;;;;;5020429;28;20014;-65
2022/02/13 01:01:01;;;;;;;;;;;;;;;;;;5022775;28;19921;-64
2022/02/13 01:03:27;;;;;;;;;;;;;;;;;;5037711;28;19951;-64
2022/02/13 01:05:53;;;;;;;;;;;;;;;;;;5019145;28;19916;-64
2022/02/13 01:08:19;;;;;;;;;;;;;;;;;;5007690;28;20031;-64
2022/02/13 01:10:45;;;;;;;;;;;;;;;;;;5004375;28;19935;-65
2022/02/13 01:13:11;;;;;;;;;;;;;;;;;;5021751;28;20020;-65
2022/02/13 01:15:37;;;;;;;;;;;;;;;;;;5020587;28;19990;-65
2022/02/13 01:18:03;;;;;;;;;;;;;;;;;;5018560;28;19927;-66
2022/02/13 01:20:29;;;;;;;;;;;;;;;;;;5026903;28;20489;-67
2022/02/13 01:22:55;;;;;;;;;;;;;;;;;;5014352;28;20013;-65
2022/02/13 01:25:21;;;;;;;;;;;;;;;;;;5000119;28;20442;-65
2022/02/13 01:27:47;;;;;;;;;;;;;;;;;;5014387;28;19927;-65
2022/02/13 01:30:13;;;;;;;;;;;;;;;;;;5016217;28;19971;-65
2022/02/13 01:32:39;;;;;;;;;;;;;;;;;;5021085;28;20038;-66
2022/02/13 01:35:05;;;;;;;;;;;;;;;;;;5015125;28;19920;-66
2022/02/13 01:37:31;;;;;;;;;;;;;;;;;;5006287;28;19917;-65
2022/02/13 01:39:58;;;;;;;;;;;;;;;;;;5008444;28;19924;-64
2022/02/13 01:42:25;;;;;;;;;;;;;;;;;;5027071;28;19924;-65
2022/02/13 01:44:53;;;;;;;;;;;;;;;;;;5020679;28;20004;-65
2022/02/13 01:47:19;;;;;;;;;;;;;;;;;;5023028;28;20425;-65
2022/02/13 01:49:45;;;;;;;;;;;;;;;;;;5022374;28;19933;-65
2022/02/13 01:52:11;;;;;;;;;;;;;;;;;;5027204;28;19917;-65
2022/02/13 01:54:37;;;;;;;;;;;;;;;;;;5025765;28;20024;-65
2022/02/13 01:57:03;;;;;;;;;;;;;;;;;;5009825;28;19916;-65
2022/02/13 01:59:29;;;;;;;;;;;;;;;;;;5041738;28;20294;-65
2022/02/13 02:01:55;;;;;;;;;;;;;;;;;;5010918;28;20381;-65
2022/02/13 02:04:21;;;;;;;;;;;;;;;;;;5028776;28;19920;-65
2022/02/13 02:06:48;;;;;;;;;;;;;;;;;;5028183;28;19917;-65
2022/02/13 02:09:14;;;;;;;;;;;;;;;;;;5027072;28;19924;-65
2022/02/13 02:11:40;;;;;;;;;;;;;;;;;;5011807;28;20371;-65
2022/02/13 02:14:07;;;;;;;;;;;;;;;;;;5013846;28;20371;-65
2022/02/13 02:16:35;;;;;;;;;;;;;;;;;;5028620;28;19917;-64
2022/02/13 02:19:01;;;;;;;;;;;;;;;;;;5039179;28;19921;-65
2022/02/13 02:21:27;;;;;;;;;;;;;;;;;;5026361;28;19928;-65
2022/02/13 02:23:53;;;;;;;;;;;;;;;;;;5022678;28;19916;-65
2022/02/13 02:26:19;;;;;;;;;;;;;;;;;;5028781;28;19998;-65
2022/02/13 02:28:45;;;;;;;;;;;;;;;;;;5023602;28;19916;-65
2022/02/13 02:31:11;;;;;;;;;;;;;;;;;;5011543;28;20441;-66
2022/02/13 02:33:37;;;;;;;;;;;;;;;;;;5040243;28;19928;-65
2022/02/13 02:36:03;;;;;;;;;;;;;;;;;;5021720;28;19986;-65
2022/02/13 02:38:30;;;;;;;;;;;;;;;;;;5028151;28;19939;-65
2022/02/13 02:40:56;;;;;;;;;;;;;;;;;;5019645;28;19960;-65
2022/02/13 02:43:22;;;;;;;;;;;;;;;;;;5011675;28;20000;-64
2022/02/13 02:45:49;;;;;;;;;;;;;;;;;;5026281;28;20007;-65
2022/02/13 02:48:15;;;;;;;;;;;;;;;;;;5009383;28;19927;-64
2022/02/13 02:50:42;;;;;;;;;;;;;;;;;;5013150;28;19921;-65
2022/02/13 02:53:08;;;;;;;;;;;;;;;;;;5017696;28;20283;-65
2022/02/13 02:55:35;;;;;;;;;;;;;;;;;;5027264;28;19921;-64
2022/02/13 02:58:01;;;;;;;;;;;;;;;;;;5030537;28;19921;-65
2022/02/13 03:00:28;;;;;;;;;;;;;;;;;;5027140;28;20252;-65
2022/02/13 03:02:54;;;;;;;;;;;;;;;;;;5026914;28;19920;-65
2022/02/13 03:05:20;;;;;;;;;;;;;;;;;;5015675;28;19989;-63
2022/02/13 03:07:46;;;;;;;;;;;;;;;;;;5006936;28;20315;-64
2022/02/13 03:10:12;;;;;;;;;;;;;;;;;;5027248;28;20007;-64
2022/02/13 03:12:38;;;;;;;;;;;;;;;;;;5031042;28;19970;-64
2022/02/13 03:15:05;;;;;;;;;;;;;;;;;;5023746;28;20306;-64
2022/02/13 03:17:31;;;;;;;;;;;;;;;;;;5028029;28;19920;-64
2022/02/13 03:19:57;;;;;;;;;;;;;;;;;;5022214;28;20803;-64
2022/02/13 03:22:23;;;;;;;;;;;;;;;;;;5024938;28;19927;-64
2022/02/13 03:24:49;;;;;;;;;;;;;;;;;;5022001;28;19916;-65
2022/02/13 03:27:15;;;;;;;;;;;;;;;;;;5029912;28;20433;-64
2022/02/13 03:29:41;;;;;;;;;;;;;;;;;;5023193;28;19929;-65
2022/02/13 03:32:07;;;;;;;;;;;;;;;;;;5026778;28;19916;-65
2022/02/13 03:34:33;;;;;;;;;;;;;;;;;;5029797;28;19948;-64
2022/02/13 03:36:59;;;;;;;;;;;;;;;;;;5023715;28;20581;-65
2022/02/13 03:39:28;;;;;;;;;;;;;;;;;;5026825;28;19940;-65
2022/02/13 03:41:55;;;;;;;;;;;;;;;;;;5022312;28;19917;-64
2022/02/13 03:44:21;;;;;;;;;;;;;;;;;;5024398;28;20008;-65
2022/02/13 03:46:47;;;;;;;;;;;;;;;;;;5022698;28;19978;-65
2022/02/13 03:49:13;;;;;;;;;;;;;;;;;;5023282;28;19963;-65
2022/02/13 03:51:39;;;;;;;;;;;;;;;;;;5025350;28;20032;-64
2022/02/13 03:54:05;;;;;;;;;;;;;;;;;;5007320;28;19920;-65
2022/02/13 03:56:31;;;;;;;;;;;;;;;;;;5027839;28;19943;-65
2022/02/13 03:58:58;;;;;;;;;;;;;;;;;;5022715;28;19928;-64
2022/02/13 04:01:25;;;;;;;;;;;;;;;;;;5027982;28;20059;-64
2022/02/13 04:03:51;;;;;;;;;;;;;;;;;;5025875;28;20710;-65
2022/02/13 04:06:17;;;;;;;;;;;;;;;;;;5025390;28;20000;-64
2022/02/13 04:08:43;;;;;;;;;;;;;;;;;;5022175;28;19931;-65
2022/02/13 04:11:09;;;;;;;;;;;;;;;;;;5032986;28;20107;-65
2022/02/13 04:13:35;;;;;;;;;;;;;;;;;;5030964;28;19921;-64
2022/02/13 04:16:01;;;;;;;;;;;;;;;;;;5030120;28;19931;-65
2022/02/13 04:18:27;;;;;;;;;;;;;;;;;;5029806;28;19996;-64
2022/02/13 04:20:53;;;;;;;;;;;;;;;;;;5025650;28;19917;-65
2022/02/13 04:23:19;;;;;;;;;;;;;;;;;;5030282;28;19921;-64
2022/02/13 04:25:45;;;;;;;;;;;;;;;;;;5009198;28;19949;-65
2022/02/13 04:28:11;;;;;;;;;;;;;;;;;;5029544;28;20287;-65
2022/02/13 04:30:37;;;;;;;;;;;;;;;;;;5029635;28;19924;-65
2022/02/13 04:33:03;;;;;;;;;;;;;;;;;;5022926;28;19921;-64
2022/02/13 04:35:30;;;;;;;;;;;;;;;;;;5031460;28;19920;-65
2022/02/13 04:37:56;;;;;;;;;;;;;;;;;;5022798;28;19917;-64
2022/02/13 04:40:22;;;;;;;;;;;;;;;;;;5028304;28;19932;-65
2022/02/13 04:42:48;;;;;;;;;;;;;;;;;;5027130;28;20009;-65
2022/02/13 04:45:14;;;;;;;;;;;;;;;;;;5029386;28;19921;-65
2022/02/13 04:47:40;;;;;;;;;;;;;;;;;;5027180;28;20444;-65
2022/02/13 04:50:06;;;;;;;;;;;;;;;;;;5014050;28;19921;-64
2022/02/13 04:52:33;;;;;;;;;;;;;;;;;;5029916;28;20347;-64
2022/02/13 04:54:59;;;;;;;;;;;;;;;;;;5033707;28;19916;-65
2022/02/13 04:57:27;;;;;;;;;;;;;;;;;;5027812;28;20298;-65
2022/02/13 04:59:53;;;;;;;;;;;;;;;;;;5031428;28;20326;-65
2022/02/13 05:02:20;;;;;;;;;;;;;;;;;;5027859;28;20488;-64
2022/02/13 05:04:46;;;;;;;;;;;;;;;;;;5021886;28;20007;-64
2022/02/13 05:07:12;;;;;;;;;;;;;;;;;;5027452;28;19917;-64
2022/02/13 05:09:39;;;;;;;;;;;;;;;;;;5027923;28;20082;-65
2022/02/13 05:12:05;;;;;;;;;;;;;;;;;;5009989;28;19921;-65
2022/02/13 05:14:32;;;;;;;;;;;;;;;;;;5030220;28;20015;-65
2022/02/13 05:16:58;;;;;;;;;;;;;;;;;;5022774;28;19940;-65
2022/02/13 05:19:24;;;;;;;;;;;;;;;;;;5032603;28;20402;-65
2022/02/13 05:21:56;;;;;;;;;;;;;;;;;;5006404;28;19981;-64
2022/02/13 05:24:22;;;;;;;;;;;;;;;;;;5013088;28;20674;-64
2022/02/13 05:26:48;;;;;;;;;;;;;;;;;;5027313;28;19917;-64
2022/02/13 05:29:15;;;;;;;;;;;;;;;;;;5009174;28;20439;-65
2022/02/13 05:31:41;;;;;;;;;;;;;;;;;;5030085;28;19917;-65
2022/02/13 05:34:07;;;;;;;;;;;;;;;;;;5031900;28;19917;-64
2022/02/13 05:36:33;;;;;;;;;;;;;;;;;;5027681;28;19927;-65
2022/02/13 05:38:59;;;;;;;;;;;;;;;;;;5011674;28;20024;-65
2022/02/13 05:41:25;;;;;;;;;;;;;;;;;;5028106;28;19919;-65
2022/02/13 05:43:51;;;;;;;;;;;;;;;;;;5025138;28;19924;-64
2022/02/13 05:46:17;;;;;;;;;;;;;;;;;;5026148;28;20278;-64
2022/02/13 05:48:45;;;;;;;;;;;;;;;;;;5023225;28;20389;-64
2022/02/13 05:51:11;;;;;;;;;;;;;;;;;;5027096;28;19920;-65
2022/02/13 05:53:37;;;;;;;;;;;;;;;;;;5028485;28;20293;-65
2022/02/13 05:56:04;;;;;;;;;;;;;;;;;;5025667;28;20674;-64
2022/02/13 05:58:34;;;;;;;;;;;;;;;;;;5031287;28;19923;-65
2022/02/13 06:01:02;;;;;;;;;;;;;;;;;;5025568;28;19951;-65
2022/02/13 06:03:28;;;;;;;;;;;;;;;;;;5028009;28;19920;-65
2022/02/13 06:05:54;;;;;;;;;;;;;;;;;;5023879;28;19939;-65
2022/02/13 06:08:23;;;;;;;;;;;;;;;;;;5029565;28;20000;-64
2022/02/13 06:10:49;;;;;;;;;;;;;;;;;;5019643;28;19968;-65
2022/02/13 06:13:15;;;;;;;;;;;;;;;;;;5026907;28;21090;-65
2022/02/13 06:15:41;;;;;;;;;;;;;;;;;;5011653;28;20260;-64
2022/02/13 06:18:07;;;;;;;;;;;;;;;;;;5024715;28;19917;-65
2022/02/13 06:20:33;;;;;;;;;;;;;;;;;;5040734;28;19917;-64
2022/02/13 06:22:59;;;;;;;;;;;;;;;;;;5023740;28;19916;-64
2022/02/13 06:25:25;;;;;;;;;;;;;;;;;;5029266;28;20442;-64
2022/02/13 06:27:51;;;;;;;;;;;;;;;;;;5024338;28;20007;-65
2022/02/13 06:30:17;;;;;;;;;;;;;;;;;;5024896;28;20012;-64
2022/02/13 06:32:43;;;;;;;;;;;;;;;;;;5011213;28;19917;-64
2022/02/13 06:35:10;;;;;;;;;;;;;;;;;;5028605;28;19916;-65
2022/02/13 06:37:36;;;;;;;;;;;;;;;;;;5011993;28;20486;-65
2022/02/13 06:40:02;;;;;;;;;;;;;;;;;;5041673;28;19925;-65
2022/02/13 06:42:28;;;;;;;;;;;;;;;;;;5012937;28;19927;-65
2022/02/13 06:44:55;;;;;;;;;;;;;;;;;;5011820;28;20385;-64
2022/02/13 06:47:21;;;;;;;;;;;;;;;;;;5028484;28;19917;-65
2022/02/13 06:49:47;;;;;;;;;;;;;;;;;;5022401;28;20032;-64
2022/02/13 06:52:13;;;;;;;;;;;;;;;;;;5040944;28;19917;-66
2022/02/13 06:54:39;;;;;;;;;;;;;;;;;;5030846;28;20666;-64
2022/02/13 06:57:05;;;;;;;;;;;;;;;;;;5026583;28;20326;-64
2022/02/13 06:59:31;;;;;;;;;;;;;;;;;;5027496;28;19926;-65
2022/02/13 07:01:57;;;;;;;;;;;;;;;;;;5021790;28;19917;-64
2022/02/13 07:04:23;;;;;;;;;;;;;;;;;;5028186;28;20403;-65
2022/02/13 07:06:50;;;;;;;;;;;;;;;;;;5029620;28;19916;-65
2022/02/13 07:09:16;;;;;;;;;;;;;;;;;;5024949;28;19987;-65
2022/02/13 07:11:41;;;;;;;;;;;;;;;;;;5027610;28;19992;-65
2022/02/13 07:14:07;;;;;;;;;;;;;;;;;;5023540;28;20434;-64
2022/02/13 07:16:33;;;;;;;;;;;;;;;;;;5030541;28;19921;-65
2022/02/13 07:18:59;;;;;;;;;;;;;;;;;;5024784;28;20673;-65
2022/02/13 07:21:25;;;;;;;;;;;;;;;;;;5023654;28;19994;-64
2022/02/13 07:23:52;;;;;;;;;;;;;;;;;;5029394;28;19928;-64
2022/02/13 07:26:17;;;;;;;;;;;;;;;;;;5023771;28;19949;-65
2022/02/13 07:28:59;;;;;;;;;;;;;;;;;;5009288;28;20042;-65
2022/02/13 07:31:25;;;;;;;;;;;;;;;;;;5016263;28;19990;-65
2022/02/13 07:33:52;;;;;;;;;;;;;;;;;;5027773;28;20409;-65
2022/02/13 07:36:17;;;;;;;;;;;;;;;;;;5032194;28;20260;-65
2022/02/13 07:38:44;;;;;;;;;;;;;;;;;;5027024;28;19917;-65
2022/02/13 07:41:10;;;;;;;;;;;;;;;;;;5031311;28;19998;-65
2022/02/13 07:43:37;;;;;;;;;;;;;;;;;;5031058;28;19916;-65
2022/02/13 07:46:03;;;;;;;;;;;;;;;;;;5025348;28;20044;-65
2022/02/13 07:48:29;;;;;;;;;;;;;;;;;;5029417;28;19956;-65
2022/02/13 07:50:56;;;;;;;;;;;;;;;;;;5025508;28;20063;-65
2022/02/13 07:53:22;;;;;;;;;;;;;;;;;;5029974;28;20062;-65
2022/02/13 07:55:49;;;;;;;;;;;;;;;;;;5024005;28;19928;-65
2022/02/13 07:58:15;;;;;;;;;;;;;;;;;;5027303;28;19924;-64
2022/02/13 08:00:42;;;;;;;;;;;;;;;;;;5043163;28;20047;-65
2022/02/13 08:03:09;;;;;;;;;;;;;;;;;;5031235;28;19956;-65
2022/02/13 08:05:35;;;;;;;;;;;;;;;;;;5031678;28;19916;-65
2022/02/13 08:08:00;;;;;;;;;;;;;;;;;;5026544;28;20552;-65
2022/02/13 08:10:27;;;;;;;;;;;;;;;;;;5012926;28;19936;-65
2022/02/13 08:12:52;;;;;;;;;;;;;;;;;;5009763;28;19916;-66
2022/02/13 08:15:19;;;;;;;;;;;;;;;;;;5030166;28;19921;-66
2022/02/13 08:17:44;;;;;;;;;;;;;;;;;;5028194;28;20323;-66
2022/02/13 08:20:14;;;;;;;;;;;;;;;;;;5026781;28;20347;-66
2022/02/13 08:22:41;;;;;;;;;;;;;;;;;;5011854;28;19992;-65
2022/02/13 08:25:08;;;;;;;;;;;;;;;;;;5033207;28;19927;-66
2022/02/13 08:27:34;;;;;;;;;;;;;;;;;;5024145;28;19913;-65
2022/02/13 08:30:00;;;;;;;;;;;;;;;;;;5027371;28;20641;-66
2022/02/13 08:32:26;;;;;;;;;;;;;;;;;;5026024;28;20455;-65
2022/02/13 08:34:55;;;;;;;;;;;;;;;;;;5020918;28;20008;-64
2022/02/13 08:37:21;;;;;;;;;;;;;;;;;;5012557;28;19924;-66
2022/02/13 08:39:48;;;;;;;;;;;;;;;;;;5012799;28;19923;-65
2022/02/13 08:42:13;;;;;;;;;;;;;;;;;;5031961;28;19924;-66
2022/02/13 08:44:40;;;;;;;;;;;;;;;;;;5030937;28;19917;-65
2022/02/13 08:47:07;;;;;;;;;;;;;;;;;;5023663;28;19916;-65
2022/02/13 08:49:34;;;;;;;;;;;;;;;;;;5012978;28;19927;-65
2022/02/13 08:52:00;;;;;;;;;;;;;;;;;;5025399;28;19924;-66
2022/02/13 08:54:26;;;;;;;;;;;;;;;;;;5025883;28;19935;-65
2022/02/13 08:56:53;;;;;;;;;;;;;;;;;;5033364;28;20387;-65
2022/02/13 08:59:19;;;;;;;;;;;;;;;;;;5032206;28;19999;-65
2022/02/13 09:01:46;;;;;;;;;;;;;;;;;;5025049;28;19955;-65
2022/02/13 09:04:12;;;;;;;;;;;;;;;;;;5035416;28;19967;-66
2022/02/13 09:06:39;;;;;;;;;;;;;;;;;;5028281;28;19921;-65
2022/02/13 09:09:06;;;;;;;;;;;;;;;;;;5025645;28;19931;-65
2022/02/13 09:11:33;;;;;;;;;;;;;;;;;;5031105;28;19917;-65
2022/02/13 09:14:00;;;;;;;;;;;;;;;;;;5009454;28;19927;-65
2022/02/13 09:16:26;;;;;;;;;;;;;;;;;;5030226;28;19925;-65
2022/02/13 09:18:53;;;;;;;;;;;;;;;;;;5022672;28;19975;-64
2022/02/13 09:21:20;;;;;;;;;;;;;;;;;;5025188;28;19923;-65
2022/02/13 09:23:46;;;;;;;;;;;;;;;;;;5019514;28;20277;-65
2022/02/13 09:26:13;;;;;;;;;;;;;;;;;;5024420;28;20335;-65
2022/02/13 09:28:39;;;;;;;;;;;;;;;;;;5030479;28;19924;-65
2022/02/13 09:31:05;;;;;;;;;;;;;;;;;;5020161;28;19921;-65
2022/02/13 09:33:31;;;;;;;;;;;;;;;;;;5024627;28;19923;-66
2022/02/13 09:35:57;;;;;;;;;;;;;;;;;;5007405;28;20064;-65
2022/02/13 09:38:24;;;;;;;;;;;;;;;;;;5027292;28;19927;-66
2022/02/13 09:40:50;;;;;;;;;;;;;;;;;;5005433;28;19916;-65
2022/02/13 09:43:17;;;;;;;;;;;;;;;;;;5027998;28;19924;-65
2022/02/13 09:45:45;;;;;;;;;;;;;;;;;;5022615;28;19928;-64
2022/02/13 09:48:12;;;;;;;;;;;;;;;;;;5018888;28;19917;-65
2022/02/13 09:50:38;;;;;;;;;;;;;;;;;;5024739;28;19956;-65
2022/02/13 09:53:04;;;;;;;;;;;;;;;;;;5016344;28;19917;-66
2022/02/13 09:55:31;;;;;;;;;;;;;;;;;;5024353;28;20016;-65
2022/02/13 09:57:59;;;;;;;;;;;;;;;;;;5019593;28;19924;-66
2022/02/13 10:00:26;;;;;;;;;;;;;;;;;;5024017;28;19917;-68
2022/02/13 10:02:53;;;;;;;;;;;;;;;;;;5022065;28;19927;-64
2022/02/13 10:05:20;;;;;;;;;;;;;;;;;;5021558;28;19956;-64
2022/02/13 10:07:46;;;;;;;;;;;;;;;;;;5019488;28;19921;-65
2022/02/13 10:10:12;;;;;;;;;;;;;;;;;;5019693;28;19929;-66
2022/02/13 10:12:44;;;;;;;;;;;;;;;;;;5018267;28;19921;-65
2022/02/13 10:15:11;;;;;;;;;;;;;;;;;;5010880;28;19928;-64
2022/02/13 10:17:37;;;;;;;;;;;;;;;;;;5026908;28;20356;-65
2022/02/13 10:20:03;;;;;;;;;;;;;;;;;;5022839;28;20056;-64
2022/02/13 10:22:28;;;;;;;;;;;;;;;;;;5025254;28;19921;-64
2022/02/13 10:24:54;;;;;;;;;;;;;;;;;;5018028;28;20881;-64
2022/02/13 10:27:21;;;;;;;;;;;;;;;;;;5024246;28;19917;-65
2022/02/13 10:29:48;;;;;;;;;;;;;;;;;;5006271;28;20016;-65
2022/02/13 10:32:14;;;;;;;;;;;;;;;;;;5021976;28;19917;-64
2022/02/13 10:34:41;;;;;;;;;;;;;;;;;;5027289;28;19917;-65
2022/02/13 10:37:07;;;;;;;;;;;;;;;;;;5029192;28;19917;-67
2022/02/13 10:39:34;;;;;;;;;;;;;;;;;;5006968;28;19916;-63
2022/02/13 10:42:00;;;;;;;;;;;;;;;;;;5010210;28;19923;-65
2022/02/13 10:44:26;;;;;;;;;;;;;;;;;;5040176;28;19917;-63
2022/02/13 10:46:53;;;;;;;;;;;;;;;;;;5000169;28;20043;-64
2022/02/13 10:49:20;;;;;;;;;;;;;;;;;;5027264;28;19921;-64
2022/02/13 10:51:46;;;;;;;;;;;;;;;;;;5018038;28;20362;-64
2022/02/13 10:54:13;;;;;;;;;;;;;;;;;;5027395;28;19921;-64
2022/02/13 10:56:40;;;;;;;;;;;;;;;;;;5028580;28;20014;-64
2022/02/13 10:59:06;;;;;;;;;;;;;;;;;;5024112;28;19917;-64
2022/02/13 11:01:32;;;;;;;;;;;;;;;;;;5010040;28;19924;-64
2022/02/13 11:04:03;;;;;;;;;;;;;;;;;;5018935;28;20437;-66
2022/02/13 11:06:30;;;;;;;;;;;;;;;;;;5027947;28;19913;-65
2022/02/13 11:08:56;;;;;;;;;;;;;;;;;;5004255;28;19928;-65
2022/02/13 11:11:23;;;;;;;;;;;;;;;;;;5023388;28;20330;-67
2022/02/13 11:13:49;;;;;;;;;;;;;;;;;;5022658;28;19923;-67
2022/02/13 11:16:15;;;;;;;;;;;;;;;;;;5021248;28;19926;-67
2022/02/13 11:18:41;;;;;;;;;;;;;;;;;;5025498;28;19925;-68
2022/02/13 11:21:07;;;;;;;;;;;;;;;;;;5027805;28;19924;-68
2022/02/13 11:23:35;;;;;;;;;;;;;;;;;;5006715;28;19917;-68
2022/02/13 11:26:01;;;;;;;;;;;;;;;;;;5020402;28;20634;-68
2022/02/13 11:28:27;;;;;;;;;;;;;;;;;;5026552;28;19916;-69
2022/02/13 11:30:53;;;;;;;;;;;;;;;;;;5016168;28;19983;-68
2022/02/13 11:33:20;;;;;;;;;;;;;;;;;;5040546;28;20368;-69
2022/02/13 11:35:46;;;;;;;;;;;;;;;;;;5002250;28;19916;-68
2022/02/13 11:38:12;;;;;;;;;;;;;;;;;;5026530;28;19924;-68
2022/02/13 11:40:38;;;;;;;;;;;;;;;;;;5024875;28;19997;-68
2022/02/13 11:43:07;;;;;;;;;;;;;;;;;;5020343;28;20462;-68
2022/02/13 11:45:37;;;;;;;;;;;;;;;;;;5021390;28;19974;-68
2022/02/13 11:48:04;;;;;;;;;;;;;;;;;;5020344;28;19935;-69
2022/02/13 11:50:30;;;;;;;;;;;;;;;;;;5022588;28;19920;-68
2022/02/13 11:52:56;;;;;;;;;;;;;;;;;;5032364;28;19924;-67
2022/02/13 11:55:26;;;;;;;;;;;;;;;;;;5024477;28;19970;-67
2022/02/13 11:57:52;;;;;;;;;;;;;;;;;;5018072;28;19917;-69
2022/02/13 12:00:19;;;;;;;;;;;;;;;;;;5029350;28;19936;-69
2022/02/13 12:02:45;;;;;;;;;;;;;;;;;;5039830;28;19916;-69
2022/02/13 12:05:12;;;;;;;;;;;;;;;;;;5043577;28;19930;-69
2022/02/13 12:07:38;;;;;;;;;;;;;;;;;;5047125;28;19920;-70
2022/02/13 12:10:04;;;;;;;;;;;;;;;;;;5037773;28;20314;-69
2022/02/13 12:12:30;;;;;;;;;;;;;;;;;;5043528;28;19925;-69
2022/02/13 12:14:56;;;;;;;;;;;;;;;;;;5041813;28;19916;-70
2022/02/13 12:17:22;;;;;;;;;;;;;;;;;;5027803;28;19913;-67
2022/02/13 12:19:48;;;;;;;;;;;;;;;;;;5028208;28;19920;-69
2022/02/13 12:22:14;;;;;;;;;;;;;;;;;;5031100;28;19923;-70
2022/02/13 12:24:40;;;;;;;;;;;;;;;;;;5046206;28;19916;-68
2022/02/13 12:27:07;;;;;;;;;;;;;;;;;;5051437;28;20024;-69
2022/02/13 12:29:33;;;;;;;;;;;;;;;;;;5046461;28;19920;-68
2022/02/13 12:32:00;;;;;;;;;;;;;;;;;;5047355;28;19993;-69
2022/02/13 12:34:26;;;;;;;;;;;;;;;;;;5050463;28;20386;-68
2022/02/13 12:36:52;;;;;;;;;;;;;;;;;;5020178;28;19944;-68
2022/02/13 12:39:18;;;;;;;;;;;;;;;;;;5042373;28;19920;-67
2022/02/13 12:41:46;;;;;;;;;;;;;;;;;;5046785;28;19917;-67
2022/02/13 12:44:12;;;;;;;;;;;;;;;;;;5033387;28;19923;-69
2022/02/13 12:46:38;;;;;;;;;;;;;;;;;;5049023;28;19920;-67
2022/02/13 12:49:06;;;;;;;;;;;;;;;;;;5025062;28;19916;-68
2022/02/13 12:51:33;;;;;;;;;;;;;;;;;;5036074;28;19932;-68
2022/02/13 12:53:59;;;;;;;;;;;;;;;;;;5032541;28;20388;-69
2022/02/13 12:56:25;;;;;;;;;;;;;;;;;;5046004;28;20482;-68
2022/02/13 12:58:51;;;;;;;;;;;;;;;;;;5044627;28;19927;-69
2022/02/13 13:01:18;;;;;;;;;;;;;;;;;;5047407;28;19924;-68
2022/02/13 13:03:44;;;;;;;;;;;;;;;;;;5044423;28;19916;-68
2022/02/13 13:06:10;;;;;;;;;;;;;;;;;;5049579;28;19928;-67
2022/02/13 13:08:36;;;;;;;;;;;;;;;;;;5028780;28;19921;-67
2022/02/13 13:11:03;;;;;;;;;;;;;;;;;;5027806;28;21536;-68
2022/02/13 13:13:30;;;;;;;;;;;;;;;;;;5043822;28;19950;-69
2022/02/13 13:15:57;;;;;;;;;;;;;;;;;;5039319;28;20015;-70
2022/02/13 13:18:24;;;;;;;;;;;;;;;;;;5049066;28;19955;-69
2022/02/13 13:20:50;;;;;;;;;;;;;;;;;;5040180;28;19925;-67
2022/02/13 13:23:16;;;;;;;;;;;;;;;;;;5047428;28;19916;-67
2022/02/13 13:25:44;;;;;;;;;;;;;;;;;;5026286;28;19979;-68
2022/02/13 13:28:10;;;;;;;;;;;;;;;;;;5043417;28;20577;-67
2022/02/13 13:30:37;;;;;;;;;;;;;;;;;;5050499;28;19924;-70
2022/02/13 13:33:03;;;;;;;;;;;;;;;;;;5038264;28;20449;-68
2022/02/13 13:35:30;;;;;;;;;;;;;;;;;;5027123;28;20329;-67
2022/02/13 13:37:56;;;;;;;;;;;;;;;;;;5039816;28;19916;-68
2022/02/13 13:40:23;;;;;;;;;;;;;;;;;;5044249;28;19920;-68
2022/02/13 13:42:51;;;;;;;;;;;;;;;;;;5038394;28;20421;-67
2022/02/13 13:45:18;;;;;;;;;;;;;;;;;;5025395;28;19971;-68
2022/02/13 13:47:45;;;;;;;;;;;;;;;;;;5038571;28;20182;-68
2022/02/13 13:50:12;;;;;;;;;;;;;;;;;;5043195;28;19924;-68
2022/02/13 13:52:39;;;;;;;;;;;;;;;;;;5030551;28;19935;-68
2022/02/13 13:55:05;;;;;;;;;;;;;;;;;;5039677;28;20031;-68
2022/02/13 13:57:31;;;;;;;;;;;;;;;;;;5047083;28;19920;-68
2022/02/13 13:59:57;;;;;;;;;;;;;;;;;;5028793;28;20378;-67
2022/02/13 14:02:23;;;;;;;;;;;;;;;;;;5044006;28;19960;-67
2022/02/13 14:04:49;;;;;;;;;;;;;;;;;;5042971;28;20027;-68
2022/02/13 14:07:16;;;;;;;;;;;;;;;;;;5033374;28;19916;-68
2022/02/13 14:09:42;;;;;;;;;;;;;;;;;;5040442;28;19920;-68
2022/02/13 14:12:08;;;;;;;;;;;;;;;;;;5047944;28;20538;-67
2022/02/13 14:14:35;;;;;;;;;;;;;;;;;;5044445;28;19994;-67
2022/02/13 14:17:01;;;;;;;;;;;;;;;;;;5044919;28;21722;-67
2022/02/13 14:19:27;;;;;;;;;;;;;;;;;;5053304;28;20371;-67
2022/02/13 14:21:53;;;;;;;;;;;;;;;;;;5039137;28;19917;-67
2022/02/13 14:24:19;;;;;;;;;;;;;;;;;;5048443;28;19920;-66
2022/02/13 14:26:45;;;;;;;;;;;;;;;;;;5023326;28;19917;-68
2022/02/13 14:29:12;;;;;;;;;;;;;;;;;;5045154;28;19916;-68
2022/02/13 14:31:39;;;;;;;;;;;;;;;;;;5048265;28;19927;-68
2022/02/13 14:34:05;;;;;;;;;;;;;;;;;;5038018;28;19987;-69
2022/02/13 14:36:31;;;;;;;;;;;;;;;;;;5030507;28;20085;-67
2022/02/13 14:38:57;;;;;;;;;;;;;;;;;;5044903;28;20023;-66
2022/02/13 14:41:24;;;;;;;;;;;;;;;;;;5044955;28;20024;-69
2022/02/13 14:43:52;;;;;;;;;;;;;;;;;;5047090;28;19915;-69
2022/02/13 14:46:20;;;;;;;;;;;;;;;;;;5025192;28;19917;-68
2022/02/13 14:48:46;;;;;;;;;;;;;;;;;;5058382;28;19927;-69
2022/02/13 14:51:12;;;;;;;;;;;;;;;;;;5034843;28;19924;-66
2022/02/13 14:53:39;;;;;;;;;;;;;;;;;;5043248;28;19970;-67
2022/02/13 14:56:05;;;;;;;;;;;;;;;;;;5045714;28;19928;-66
2022/02/13 14:58:32;;;;;;;;;;;;;;;;;;5045171;28;19923;-67
2022/02/13 15:00:58;;;;;;;;;;;;;;;;;;5044465;28;19928;-68
2022/02/13 15:03:25;;;;;;;;;;;;;;;;;;5051041;28;19939;-66
2022/02/13 15:05:51;;;;;;;;;;;;;;;;;;5040203;28;19920;-67
2022/02/13 15:08:17;;;;;;;;;;;;;;;;;;5049102;28;19939;-66
2022/02/13 15:10:43;;;;;;;;;;;;;;;;;;5043778;28;19924;-67
2022/02/13 15:13:09;;;;;;;;;;;;;;;;;;5047171;28;19916;-66
2022/02/13 15:15:36;;;;;;;;;;;;;;;;;;5051680;28;19959;-67
2022/02/13 15:18:03;;;;;;;;;;;;;;;;;;5039778;28;20001;-67
2022/02/13 15:20:30;;;;;;;;;;;;;;;;;;5045853;28;19917;-67
2022/02/13 15:22:56;;;;;;;;;;;;;;;;;;5046434;28;20355;-67
2022/02/13 15:25:23;;;;;;;;;;;;;;;;;;5049082;28;19960;-68
2022/02/13 15:27:49;;;;;;;;;;;;;;;;;;5039754;28;19920;-67
2022/02/13 15:30:15;;;;;;;;;;;;;;;;;;5047202;28;19935;-67
2022/02/13 15:32:41;;;;;;;;;;;;;;;;;;5046951;28;19931;-67
2022/02/13 15:35:08;;;;;;;;;;;;;;;;;;5047859;28;19968;-68
2022/02/13 15:37:35;;;;;;;;;;;;;;;;;;5048404;28;19950;-67
2022/02/13 15:40:01;;;;;;;;;;;;;;;;;;5026069;28;19920;-66
2022/02/13 15:42:28;;;;;;;;;;;;;;;;;;5029752;28;19912;-67
2022/02/13 15:44:54;;;;;;;;;;;;;;;;;;5043953;28;19916;-68
2022/02/13 15:47:21;;;;;;;;;;;;;;;;;;5043775;28;20420;-67
2022/02/13 15:49:47;;;;;;;;;;;;;;;;;;5041170;28;19951;-66
2022/02/13 15:52:13;;;;;;;;;;;;;;;;;;5025190;28;20393;-66
2022/02/13 15:54:39;;;;;;;;;;;;;;;;;;5041475;28;20326;-67
2022/02/13 15:57:06;;;;;;;;;;;;;;;;;;5040629;28;19974;-66
2022/02/13 15:59:33;;;;;;;;;;;;;;;;;;5028032;28;19924;-67
2022/02/13 16:01:59;;;;;;;;;;;;;;;;;;5026330;28;20744;-67
2022/02/13 16:04:25;;;;;;;;;;;;;;;;;;5042363;28;19917;-66
2022/02/13 16:06:51;;;;;;;;;;;;;;;;;;5024429;28;19955;-66
2022/02/13 16:09:17;;;;;;;;;;;;;;;;;;5029564;28;20051;-68
2022/02/13 16:11:43;;;;;;;;;;;;;;;;;;5042592;28;20381;-67
2022/02/13 16:14:10;;;;;;;;;;;;;;;;;;5045854;28;19916;-68
2022/02/13 16:16:36;;;;;;;;;;;;;;;;;;5047423;28;20412;-68
2022/02/13 16:19:03;;;;;;;;;;;;;;;;;;5045531;28;19927;-68
2022/02/13 16:21:30;;;;;;;;;;;;;;;;;;5052684;28;19921;-68
2022/02/13 16:24:05;;;;;;;;;;;;;;;;;;5028092;28;19935;-68
2022/02/13 16:26:33;;;;;;;;;;;;;;;;;;5045568;28;19924;-68
2022/02/13 16:28:59;;;;;;;;;;;;;;;;;;5059503;28;20637;-68
2022/02/13 16:31:26;;;;;;;;;;;;;;;;;;5051008;28;20320;-67
2022/02/13 16:33:52;;;;;;;;;;;;;;;;;;5026876;28;19917;-67
2022/02/13 16:36:18;;;;;;;;;;;;;;;;;;5048237;28;20018;-67
2022/02/13 16:38:44;;;;;;;;;;;;;;;;;;5017721;28;20751;-66